Time;durP1;ratioP1;P1;durP2;ratioP2;P2;SDS_P1;SDS_P2;PMS_P1;PMS_P2;Temp;Humidity;BMP_temperature;BMP_pressure;BME280_temperature;BME280_humidity;BME280_pressure;Samples;Min_cycle;Max_cycle;Signal;HPM_P1;HPM_P2
2021/07/19 00:00:12;;;;;;;5.30;1.80;;;;;;;20.78;64.44;100790.25;4901327;28;120280;-60
2021/07/19 00:02:39;;;;;;;4.15;1.80;;;;;;;20.77;65.11;100796.88;4901657;28;97887;-64
2021/07/19 00:05:06;;;;;;;3.20;1.80;;;;;;;20.78;65.03;100802.03;4901354;28;98942;-64
2021/07/19 00:07:32;;;;;;;2.75;1.60;;;;;;;20.78;65.06;100799.28;4900859;28;114988;-59
2021/07/19 00:09:58;;;;;;;2.47;1.60;;;;;;;20.77;65.07;100794.94;4900271;28;127447;-65
2021/07/19 00:12:24;;;;;;;4.45;1.90;;;;;;;20.75;65.30;100793.66;4901119;28;117827;-64
2021/07/19 00:14:50;;;;;;;3.42;1.67;;;;;;;20.76;65.42;100800.75;4883258;28;113392;-59
2021/07/19 00:17:17;;;;;;;3.35;2.08;;;;;;;20.74;65.40;100801.06;4899747;28;112344;-59
2021/07/19 00:19:43;;;;;;;4.03;1.77;;;;;;;20.75;65.62;100804.59;4901143;28;98096;-60
2021/07/19 00:22:09;;;;;;;4.55;1.88;;;;;;;20.75;65.54;100801.88;4901759;28;97641;-64
2021/07/19 00:24:35;;;;;;;4.18;1.92;;;;;;;20.74;65.87;100797.53;4900608;28;105291;-64
2021/07/19 00:27:02;;;;;;;5.55;2.00;;;;;;;20.75;65.69;100799.13;4898540;28;117392;-59
2021/07/19 00:29:28;;;;;;;3.40;1.90;;;;;;;20.75;65.79;100799.13;4898903;28;115442;-64
2021/07/19 00:31:54;;;;;;;5.30;1.63;;;;;;;20.76;65.65;100801.56;4900685;28;117561;-64
2021/07/19 00:34:21;;;;;;;3.05;1.70;;;;;;;20.76;65.45;100804.28;4900470;28;126559;-60
2021/07/19 00:36:50;;;;;;;4.07;1.83;;;;;;;20.75;65.58;100801.88;4900970;28;118551;-65
2021/07/19 00:39:16;;;;;;;2.80;1.52;;;;;;;20.74;65.69;100800.28;4899921;28;97979;-60
2021/07/19 00:41:42;;;;;;;4.72;1.60;;;;;;;20.72;65.62;100806.09;4898746;28;117052;-64
2021/07/19 00:44:08;;;;;;;5.32;1.85;;;;;;;20.72;65.67;100811.56;4900542;28;126840;-59
2021/07/19 00:46:34;;;;;;;2.55;1.60;;;;;;;20.71;65.83;100803.66;4900740;28;125196;-59
2021/07/19 00:49:00;;;;;;;3.15;1.58;;;;;;;20.71;65.74;100803.66;4901013;28;98930;-64
2021/07/19 00:51:26;;;;;;;6.68;2.10;;;;;;;20.68;65.81;100813.34;4898789;28;118069;-59
2021/07/19 00:53:52;;;;;;;4.38;1.73;;;;;;;20.68;65.80;100807.88;4898740;28;114641;-64
2021/07/19 00:56:18;;;;;;;4.55;1.75;;;;;;;20.66;65.41;100810.13;4901663;28;98747;-59
2021/07/19 00:58:46;;;;;;;3.83;1.92;;;;;;;20.65;65.35;100805.78;4883638;28;98064;-59
2021/07/19 01:01:12;;;;;;;4.25;1.90;;;;;;;20.66;64.98;100810.13;4898874;28;97962;-60
2021/07/19 01:03:38;;;;;;;4.57;1.90;;;;;;;20.67;65.27;100808.19;4881801;28;113599;-66
2021/07/19 01:06:04;;;;;;;4.70;2.00;;;;;;;20.68;64.83;100807.06;4866269;28;127217;-59
2021/07/19 01:08:30;;;;;;;4.35;1.90;;;;;;;20.69;64.87;100817.69;4882237;28;118165;-60
2021/07/19 01:10:56;;;;;;;3.90;2.00;;;;;;;20.71;64.58;100814.59;4882769;28;117657;-64
2021/07/19 01:13:22;;;;;;;4.68;2.08;;;;;;;20.71;64.52;100820.09;4900924;28;98123;-65
2021/07/19 01:15:48;;;;;;;4.85;2.00;;;;;;;20.72;64.55;100825.25;4898482;28;129369;-59
2021/07/19 01:18:14;;;;;;;4.68;2.05;;;;;;;20.71;64.52;100820.91;4900186;28;126587;-60
2021/07/19 01:20:59;;;;;;;4.70;1.85;;;;;;;20.71;64.63;100820.09;4900560;28;116925;-64
2021/07/19 01:23:30;;;;;;;4.55;1.95;;;;;;;20.68;64.61;100810.59;4900148;28;98547;-64
2021/07/19 01:26:19;;;;;;;7.55;2.35;;;;;;;20.65;64.31;100810.47;4901690;28;98030;-60
2021/07/19 01:28:47;;;;;;;3.90;2.00;;;;;;;20.65;64.37;100813.19;4883917;28;117378;-59
2021/07/19 01:31:17;;;;;;;3.28;1.92;;;;;;;20.63;64.46;100818.19;4899566;28;98018;-65
2021/07/19 01:33:48;;;;;;;5.15;1.83;;;;;;;20.63;64.32;100826.41;4897758;28;117082;-59
2021/07/19 01:36:16;;;;;;;4.88;1.90;;;;;;;20.64;64.19;100828.03;4882818;28;108154;-59
2021/07/19 01:38:42;;;;;;;5.88;2.08;;;;;;;20.64;64.29;100822.53;4901365;28;98161;-61
2021/07/19 01:41:09;;;;;;;4.75;1.67;;;;;;;20.63;64.41;100827.19;4902776;28;98003;-59
2021/07/19 01:43:35;;;;;;;4.13;1.85;;;;;;;20.61;64.13;100834.16;4900581;28;128104;-64
2021/07/19 01:46:01;;;;;;;4.57;1.90;;;;;;;20.59;64.07;100828.97;4903055;28;125555;-60
2021/07/19 01:48:31;;;;;;;3.75;1.85;;;;;;;20.56;64.28;100835.94;4870337;28;98094;-64
2021/07/19 01:50:59;;;;;;;4.72;2.10;;;;;;;20.55;64.20;100833.50;4871418;28;98358;-65
2021/07/19 01:53:26;;;;;;;3.80;2.00;;;;;;;20.55;64.39;100830.75;4901809;28;108116;-60
2021/07/19 01:55:52;;;;;;;3.30;1.67;;;;;;;20.55;64.32;100836.22;4885511;28;97898;-64
2021/07/19 01:58:19;;;;;;;5.97;2.40;;;;;;;20.54;64.43;100840.13;4901148;28;126449;-59
2021/07/19 02:00:45;;;;;;;4.32;1.80;;;;;;;20.55;64.54;100841.72;4901983;28;97923;-60
2021/07/19 02:03:11;;;;;;;4.47;1.90;;;;;;;20.54;64.50;100842.84;4885071;28;112055;-65
2021/07/19 02:05:37;;;;;;;4.20;1.85;;;;;;;20.53;64.33;100841.25;4902400;28;127906;-60
2021/07/19 02:08:05;;;;;;;2.90;1.75;;;;;;;20.49;64.25;100838.34;4901185;28;116948;-60
2021/07/19 02:10:31;;;;;;;4.88;1.83;;;;;;;20.46;64.22;100841.69;4903766;28;97942;-60
2021/07/19 02:12:57;;;;;;;4.03;1.70;;;;;;;20.45;64.26;100853.00;4885437;28;110433;-59
2021/07/19 02:15:23;;;;;;;4.95;1.85;;;;;;;20.44;64.53;100848.66;4885457;28;98561;-64
2021/07/19 02:18:00;;;;;;;4.68;1.95;;;;;;;20.41;64.25;100852.84;4884194;28;126742;-65
2021/07/19 02:20:26;;;;;;;4.25;1.92;;;;;;;20.41;64.58;100855.56;4901538;28;108241;-65
2021/07/19 02:22:53;;;;;;;3.80;1.63;;;;;;;20.41;64.87;100847.34;4916774;28;98833;-60
2021/07/19 02:25:19;;;;;;;3.35;1.88;;;;;;;20.42;64.34;100861.84;4885635;28;111058;-65
2021/07/19 02:27:46;;;;;;;3.50;1.90;;;;;;;20.43;64.83;100861.50;4869220;28;127526;-60
2021/07/19 02:30:15;;;;;;;4.60;2.00;;;;;;;20.44;64.68;100865.06;4884999;28;106877;-65
2021/07/19 02:32:44;;;;;;;4.55;2.33;;;;;;;20.42;64.64;100865.38;4903158;28;98343;-65
2021/07/19 02:35:12;;;;;;;4.15;2.20;;;;;;;20.40;64.76;100866.84;4900556;28;104842;-65
2021/07/19 02:37:39;;;;;;;3.13;1.80;;;;;;;20.41;65.00;100857.50;4901063;28;111255;-65
2021/07/19 02:40:09;;;;;;;3.25;1.65;;;;;;;20.40;64.66;100861.38;4901509;28;99238;-60
2021/07/19 02:42:43;;;;;;;4.30;2.05;;;;;;;20.40;65.00;100873.13;4901552;28;98893;-60
2021/07/19 02:45:14;;;;;;;4.13;1.95;;;;;;;20.40;65.07;100878.59;4902846;28;99227;-65
2021/07/19 02:47:41;;;;;;;6.07;2.08;;;;;;;20.40;65.08;100875.88;4903348;28;97750;-65
2021/07/19 02:50:08;;;;;;;4.70;2.30;;;;;;;20.41;65.12;100877.47;4881654;28;98006;-60
2021/07/19 02:52:34;;;;;;;4.65;2.10;;;;;;;20.41;65.12;100882.16;4893071;28;100392;-60
2021/07/19 02:55:01;;;;;;;4.45;2.10;;;;;;;20.41;64.94;100893.88;4883914;28;125306;-65
2021/07/19 02:57:28;;;;;;;5.30;2.22;;;;;;;20.42;65.29;100902.91;4901068;28;103225;-60
2021/07/19 02:59:54;;;;;;;4.18;2.30;;;;;;;20.41;65.08;100896.63;4901497;28;116959;-60
2021/07/19 03:02:21;;;;;;;4.88;2.17;;;;;;;20.41;65.29;100904.03;4901424;28;127078;-60
2021/07/19 03:04:49;;;;;;;4.50;2.00;;;;;;;20.41;65.25;100902.09;4900523;28;98780;-65
2021/07/19 03:07:16;;;;;;;4.43;2.22;;;;;;;20.42;65.13;100902.91;4900027;28;115816;-66
2021/07/19 03:09:42;;;;;;;4.90;2.35;;;;;;;20.43;65.40;100907.25;4885785;28;97869;-65
2021/07/19 03:12:08;;;;;;;3.83;2.30;;;;;;;20.42;65.06;100906.44;4867433;28;126888;-65
2021/07/19 03:14:34;;;;;;;4.70;2.22;;;;;;;20.41;65.07;100904.84;4900955;28;98392;-65
2021/07/19 03:17:02;;;;;;;5.85;2.42;;;;;;;20.40;65.20;100907.91;4884576;28;99672;-65
2021/07/19 03:19:28;;;;;;;4.78;2.03;;;;;;;20.38;65.10;100902.75;4901051;28;98088;-65
2021/07/19 03:21:56;;;;;;;7.38;2.20;;;;;;;20.40;65.21;100907.91;4899374;28;128002;-60
2021/07/19 03:24:22;;;;;;;4.20;2.50;;;;;;;20.40;65.44;100914.19;4884977;28;98313;-60
2021/07/19 03:26:48;;;;;;;6.70;2.38;;;;;;;20.42;65.10;100913.84;4900523;28;107877;-65
2021/07/19 03:29:15;;;;;;;4.90;2.65;;;;;;;20.42;65.20;100909.19;4883510;28;114297;-60
2021/07/19 03:31:41;;;;;;;5.28;2.83;;;;;;;20.42;65.19;100906.44;4884310;28;98622;-65
2021/07/19 03:34:07;;;;;;;6.65;2.60;;;;;;;20.43;65.13;100908.03;4900420;28;99230;-60
2021/07/19 03:36:33;;;;;;;5.07;2.50;;;;;;;20.42;65.33;100909.19;4868775;28;98044;-60
2021/07/19 03:39:00;;;;;;;5.35;3.00;;;;;;;20.40;64.96;100911.44;4899895;28;98013;-60
2021/07/19 03:41:29;;;;;;;4.38;2.80;;;;;;;20.40;65.33;100919.66;4899908;28;99391;-64
2021/07/19 03:43:55;;;;;;;5.97;2.85;;;;;;;20.39;65.37;100915.28;4884035;28;112434;-60
2021/07/19 03:46:21;;;;;;;6.13;2.70;;;;;;;20.38;65.29;100910.97;4900280;28;98199;-64
2021/07/19 03:48:48;;;;;;;4.85;3.00;;;;;;;20.39;64.74;100918.03;4884503;28;97885;-65
2021/07/19 03:51:14;;;;;;;5.15;2.80;;;;;;;20.39;64.95;100923.50;4900270;28;99155;-64
2021/07/19 03:53:40;;;;;;;5.03;2.72;;;;;;;20.39;65.01;100926.25;4884163;28;98735;-65
2021/07/19 03:56:06;;;;;;;6.07;3.00;;;;;;;20.40;65.15;100927.06;4867736;28;110506;-65
2021/07/19 03:58:33;;;;;;;5.40;2.80;;;;;;;20.39;64.88;100920.78;4900863;28;97852;-65
2021/07/19 04:01:00;;;;;;;4.78;2.67;;;;;;;20.39;64.88;100925.44;4899846;28;99295;-65
2021/07/19 04:03:28;;;;;;;6.13;3.30;;;;;;;20.35;64.16;100931.56;4884751;28;111191;-60
2021/07/19 04:05:58;;;;;;;6.13;3.30;;;;;;;20.32;64.42;100928.69;4884594;28;97832;-60
2021/07/19 04:08:27;;;;;;;5.97;3.13;;;;;;;20.30;64.24;100928.19;4885362;28;97803;-60
2021/07/19 04:10:54;;;;;;;7.75;3.20;;;;;;;20.28;63.93;100933.19;4884182;28;98516;-60
2021/07/19 04:13:20;;;;;;;7.18;3.45;;;;;;;20.26;63.85;100930.75;4898700;28;127822;-60
2021/07/19 04:15:48;;;;;;;5.93;3.40;;;;;;;20.22;64.22;100935.25;4882655;28;119018;-60
2021/07/19 04:18:14;;;;;;;5.38;3.22;;;;;;;20.21;64.52;100933.66;4884372;28;97833;-60
2021/07/19 04:20:41;;;;;;;6.53;3.40;;;;;;;20.20;64.25;100936.69;4901335;28;126957;-60
2021/07/19 04:23:16;;;;;;;5.70;3.50;;;;;;;20.14;63.82;100940.72;4902070;28;98666;-66
2021/07/19 04:25:42;;;;;;;4.85;3.40;;;;;;;20.15;63.89;100950.53;4898605;28;127071;-65
2021/07/19 04:28:08;;;;;;;4.47;3.60;;;;;;;20.15;63.57;100956.03;4900582;28;97942;-65
2021/07/19 04:30:36;;;;;;;6.32;3.40;;;;;;;20.15;63.80;100945.88;4866335;28;127618;-60
2021/07/19 04:33:03;;;;;;;6.15;3.70;;;;;;;20.17;64.04;100948.31;4899503;28;98666;-65
2021/07/19 04:35:29;;;;;;;6.35;3.75;;;;;;;20.18;64.13;100947.97;4881969;28;117906;-65
2021/07/19 04:37:55;;;;;;;4.97;3.75;;;;;;;20.21;63.82;100952.03;4884292;28;97850;-60
2021/07/19 04:40:25;;;;;;;7.30;3.92;;;;;;;20.19;63.74;100948.78;4901734;28;97862;-65
2021/07/19 04:42:52;;;;;;;6.95;3.85;;;;;;;20.14;63.14;100952.47;4883783;28;97701;-60
2021/07/19 04:45:20;;;;;;;6.10;4.00;;;;;;;20.08;63.27;100962.78;4898870;28;98108;-60
2021/07/19 04:47:47;;;;;;;6.05;4.15;;;;;;;20.03;63.13;100957.44;4898307;28;97698;-60
2021/07/19 04:50:15;;;;;;;5.40;4.25;;;;;;;19.97;62.90;100964.22;4898364;28;98703;-60
2021/07/19 04:52:41;;;;;;;5.82;4.25;;;;;;;19.91;62.94;100964.66;4897877;28;98219;-60
2021/07/19 04:55:11;;;;;;;7.50;4.40;;;;;;;19.85;62.80;100958.56;4897092;28;97967;-65
2021/07/19 04:57:38;;;;;;;6.85;4.50;;;;;;;19.79;62.31;100965.28;4881746;28;98344;-60
2021/07/19 05:00:05;;;;;;;7.07;4.60;;;;;;;19.76;62.57;100969.44;4894768;28;127003;-65
2021/07/19 05:02:31;;;;;;;6.72;4.85;;;;;;;19.72;62.57;100968.47;4896427;28;98667;-65
2021/07/19 05:04:57;;;;;;;6.55;5.07;;;;;;;19.70;62.14;100978.94;4863268;28;126293;-60
2021/07/19 05:07:25;;;;;;;7.93;4.93;;;;;;;19.67;61.66;100970.53;4898541;28;98073;-60
2021/07/19 05:09:51;;;;;;;7.78;5.20;;;;;;;19.65;61.81;100978.25;4896424;28;98715;-66
2021/07/19 05:12:21;;;;;;;6.25;4.93;;;;;;;19.61;61.92;100973.44;4863506;28;127747;-65
2021/07/19 05:14:47;;;;;;;6.70;4.95;;;;;;;19.61;61.55;100983.53;4882909;28;98071;-60
2021/07/19 05:17:14;;;;;;;11.18;5.03;;;;;;;19.58;61.64;100984.97;4902032;28;99472;-65
2021/07/19 05:19:40;;;;;;;6.13;4.75;;;;;;;19.58;61.51;100986.91;4900939;28;119059;-65
2021/07/19 05:22:14;;;;;;;7.15;5.10;;;;;;;19.52;61.83;100980.75;4900200;28;98955;-60
2021/07/19 05:24:41;;;;;;;6.65;4.93;;;;;;;19.58;61.68;100986.91;4900639;28;97989;-60
2021/07/19 05:27:08;;;;;;;7.18;4.90;;;;;;;19.61;62.03;100980.81;4901338;28;97911;-65
2021/07/19 05:29:34;;;;;;;7.25;4.97;;;;;;;19.65;61.51;100995.50;4898953;28;98794;-65
2021/07/19 05:32:02;;;;;;;7.05;5.05;;;;;;;19.65;61.52;100986.44;4900431;28;123647;-65
2021/07/19 05:34:28;;;;;;;6.47;5.10;;;;;;;19.65;61.51;100986.44;4899808;28;118044;-65
2021/07/19 05:36:54;;;;;;;9.48;5.30;;;;;;;19.65;61.55;100991.91;4900915;28;97954;-60
2021/07/19 05:39:20;;;;;;;8.38;5.68;;;;;;;19.72;61.32;100993.06;4901882;28;128467;-65
2021/07/19 05:41:46;;;;;;;10.70;5.68;;;;;;;19.81;60.98;100995.88;4904231;28;98584;-60
2021/07/19 05:44:13;;;;;;;9.82;5.20;;;;;;;19.85;60.43;100999.56;4902804;28;128303;-60
2021/07/19 05:46:39;;;;;;;7.97;5.50;;;;;;;19.88;60.26;100998.91;4904427;28;97959;-66
2021/07/19 05:49:05;;;;;;;9.23;5.38;;;;;;;19.93;60.36;100998.78;4903975;28;98017;-65
2021/07/19 05:51:31;;;;;;;8.70;5.70;;;;;;;19.97;59.77;100997.03;4902782;28;128149;-60
2021/07/19 05:53:57;;;;;;;7.80;5.25;;;;;;;20.03;59.44;101005.88;4902968;28;127349;-65
2021/07/19 05:56:24;;;;;;;8.95;5.00;;;;;;;20.01;58.87;101002.69;4904136;28;97777;-60
2021/07/19 05:58:50;;;;;;;7.13;4.78;;;;;;;20.02;58.10;101016.03;4904202;28;103284;-65
2021/07/19 06:01:16;;;;;;;8.43;4.47;;;;;;;20.01;57.69;101017.16;4901129;28;126633;-60
2021/07/19 06:03:42;;;;;;;9.43;4.53;;;;;;;20.01;57.26;101019.09;4902574;28;125851;-65
2021/07/19 06:06:09;;;;;;;8.68;4.63;;;;;;;20.02;57.05;101016.03;4903276;28;97632;-65
2021/07/19 06:08:35;;;;;;;8.48;4.65;;;;;;;20.02;56.83;101026.97;4900622;28;115905;-60
2021/07/19 06:11:01;;;;;;;10.27;4.80;;;;;;;19.98;55.61;101023.25;4902576;28;127458;-60
2021/07/19 06:13:27;;;;;;;9.10;4.20;;;;;;;19.99;55.16;101018.59;4902236;28;122317;-66
2021/07/19 06:15:53;;;;;;;11.30;4.43;;;;;;;20.02;55.37;101017.97;4903662;28;106885;-65
2021/07/19 06:18:19;;;;;;;7.97;4.28;;;;;;;20.06;54.96;101019.75;4901823;28;126663;-66
2021/07/19 06:20:45;;;;;;;9.77;4.40;;;;;;;20.10;54.70;101025.41;4903641;28;97820;-60
2021/07/19 06:23:11;;;;;;;9.93;4.53;;;;;;;20.12;55.20;101014.91;4885575;28;98673;-60
2021/07/19 06:25:41;;;;;;;8.75;4.43;;;;;;;20.16;54.55;101020.56;4900262;28;117018;-65
2021/07/19 06:28:07;;;;;;;8.98;4.00;;;;;;;20.13;54.54;101018.50;4903664;28;97938;-65
2021/07/19 06:30:33;;;;;;;8.05;4.00;;;;;;;20.12;54.75;101017.66;4902849;28;98078;-60
2021/07/19 06:33:00;;;;;;;7.65;3.50;;;;;;;20.18;54.21;101007.38;4901856;28;120032;-66
2021/07/19 06:35:26;;;;;;;9.93;4.30;;;;;;;20.31;53.93;101018.19;4902671;28;100991;-60
2021/07/19 06:37:52;;;;;;;12.15;4.10;;;;;;;20.39;53.56;101022.06;4902590;28;125793;-65
2021/07/19 06:40:18;;;;;;;9.43;3.70;;;;;;;20.43;53.73;101022.22;4902203;28;127865;-66
2021/07/19 06:42:44;;;;;;;9.55;3.63;;;;;;;20.48;53.34;101019.34;4901727;28;97914;-66
2021/07/19 06:45:12;;;;;;;8.68;3.72;;;;;;;20.50;53.43;101019.84;4900518;28;116489;-60
2021/07/19 06:47:39;;;;;;;9.07;3.90;;;;;;;20.58;53.10;101019.84;4900842;28;98806;-60
2021/07/19 06:50:10;;;;;;;11.38;3.65;;;;;;;20.65;52.57;101021.31;4902583;28;99106;-66
2021/07/19 06:52:37;;;;;;;7.70;3.67;;;;;;;20.71;52.82;101025.50;4902359;28;117689;-60
2021/07/19 06:55:04;;;;;;;9.55;3.75;;;;;;;20.78;52.54;101032.09;4901246;28;98985;-65
2021/07/19 06:57:31;;;;;;;8.68;3.70;;;;;;;20.90;52.34;101028.72;4932672;28;114301;-60
2021/07/19 06:59:57;;;;;;;9.63;3.88;;;;;;;21.01;51.67;101029.19;4901703;28;128155;-60
2021/07/19 07:02:23;;;;;;;8.75;3.58;;;;;;;21.18;51.94;101022.88;4902320;28;108008;-60
2021/07/19 07:04:49;;;;;;;9.88;3.70;;;;;;;21.37;51.30;101017.88;4902073;28;102859;-60
2021/07/19 07:07:15;;;;;;;11.05;3.97;;;;;;;21.61;51.15;101022.78;4900032;28;128073;-60
2021/07/19 07:09:41;;;;;;;8.52;4.00;;;;;;;21.87;50.14;101025.44;4903133;28;99328;-66
2021/07/19 07:12:07;;;;;;;8.82;3.80;;;;;;;22.13;50.11;101021.78;4902529;28;126960;-60
2021/07/19 07:14:33;;;;;;;7.35;3.40;;;;;;;22.49;49.25;101021.22;4902553;28;106391;-65
2021/07/19 07:16:59;;;;;;;8.88;3.55;;;;;;;22.92;48.16;101020.09;4901901;28;110286;-60
2021/07/19 07:19:26;;;;;;;7.47;3.42;;;;;;;23.74;46.47;101010.00;4901739;28;128570;-60
2021/07/19 07:21:52;;;;;;;8.00;3.22;;;;;;;24.12;45.27;101019.84;4900383;28;97985;-66
2021/07/19 07:24:19;;;;;;;9.43;3.15;;;;;;;24.01;45.32;101026.97;4901211;28;118581;-66
2021/07/19 07:26:45;;;;;;;9.05;3.20;;;;;;;24.03;45.18;101040.41;4902398;28;98592;-67
2021/07/19 07:29:12;;;;;;;7.07;2.58;;;;;;;23.98;45.01;101033.97;4902506;28;116160;-66
2021/07/19 07:31:38;;;;;;;10.80;3.00;;;;;;;23.87;44.47;101030.09;4867103;28;124675;-65
2021/07/19 07:34:05;;;;;;;8.07;2.58;;;;;;;23.82;44.72;101029.50;4899255;28;118959;-66
2021/07/19 07:36:33;;;;;;;7.15;2.53;;;;;;;23.86;44.08;101024.94;4902258;28;98526;-60
2021/07/19 07:39:02;;;;;;;9.35;2.42;;;;;;;23.84;43.59;101029.97;4900355;28;98937;-66
2021/07/19 07:41:29;;;;;;;7.38;2.78;;;;;;;23.79;43.38;101020.00;4901384;28;117049;-66
2021/07/19 07:43:55;;;;;;;8.15;2.30;;;;;;;23.72;43.73;101020.53;4902335;28;98045;-60
2021/07/19 07:46:23;;;;;;;8.68;2.30;;;;;;;23.68;43.75;101016.88;4899961;28;98928;-66
2021/07/19 07:48:50;;;;;;;6.70;2.20;;;;;;;23.68;43.67;101011.38;4899446;28;98559;-60
2021/07/19 07:51:16;;;;;;;6.22;2.38;;;;;;;23.65;44.00;101012.03;4902450;28;98289;-60
2021/07/19 07:53:42;;;;;;;7.78;2.15;;;;;;;23.64;44.33;101010.41;4901097;28;116705;-61
2021/07/19 07:56:08;;;;;;;7.45;2.55;;;;;;;23.64;43.70;101012.38;4900750;28;128471;-66
2021/07/19 07:58:34;;;;;;;8.27;2.70;;;;;;;23.63;43.61;101008.81;4901678;28;122989;-66
2021/07/19 08:01:01;;;;;;;6.78;2.25;;;;;;;23.69;43.15;101007.47;4900803;28;100008;-66
2021/07/19 08:03:27;;;;;;;7.82;2.42;;;;;;;23.72;42.20;101003.25;4902223;28;97712;-61
2021/07/19 08:05:54;;;;;;;7.22;2.33;;;;;;;23.86;42.21;101006.47;4901604;28;98553;-66
2021/07/19 08:08:20;;;;;;;6.20;2.50;;;;;;;23.98;41.65;101006.47;4901726;28;113185;-66
2021/07/19 08:10:46;;;;;;;7.68;2.70;;;;;;;23.92;42.00;101010.56;4900735;28;127260;-66
2021/07/19 08:13:12;;;;;;;7.30;2.97;;;;;;;23.75;41.78;101006.09;4901572;28;97802;-61
2021/07/19 08:15:39;;;;;;;7.07;2.72;;;;;;;23.57;41.58;101014.88;4900538;28;127932;-66
2021/07/19 08:18:05;;;;;;;7.57;2.65;;;;;;;23.36;41.40;101013.03;4901569;28;98730;-60
2021/07/19 08:20:31;;;;;;;6.20;2.53;;;;;;;23.20;42.29;101020.31;4900447;28;127157;-66
2021/07/19 08:22:57;;;;;;;7.60;3.17;;;;;;;23.15;42.29;101018.59;4901400;28;103303;-60
2021/07/19 08:25:23;;;;;;;6.45;3.03;;;;;;;23.27;42.01;101012.31;4900608;28;127556;-66
2021/07/19 08:27:49;;;;;;;7.38;3.30;;;;;;;23.40;42.30;101016.69;4900925;28;129055;-60
2021/07/19 08:30:16;;;;;;;7.07;3.50;;;;;;;23.69;41.40;101014.94;4900230;28;127411;-60
2021/07/19 08:32:42;;;;;;;5.40;2.97;;;;;;;25.49;38.14;101011.59;4901830;28;97832;-66
2021/07/19 08:35:10;;;;;;;7.22;3.38;;;;;;;27.66;33.95;101014.63;4901277;28;112016;-66
2021/07/19 08:37:46;;;;;;;9.27;3.30;;;;;;;29.02;33.58;101008.25;4900995;28;98340;-66
2021/07/19 08:40:15;;;;;;;9.05;3.15;;;;;;;30.21;30.58;101014.44;4901257;28;98352;-60
2021/07/19 08:42:41;;;;;;;11.18;3.70;;;;;;;30.57;29.88;101014.63;4901269;28;97875;-67
2021/07/19 08:45:10;;;;;;;7.53;3.50;;;;;;;32.24;28.35;101013.25;4901681;28;100151;-61
2021/07/19 08:47:41;;;;;;;6.70;3.42;;;;;;;33.68;27.40;101014.06;4902223;28;98250;-67
2021/07/19 08:50:09;;;;;;;6.00;3.33;;;;;;;35.01;25.12;101019.78;4904304;28;98262;-67
2021/07/19 08:52:35;;;;;;;5.38;3.17;;;;;;;34.88;24.81;100999.16;4904668;28;106681;-61
2021/07/19 08:55:03;;;;;;;6.65;3.80;;;;;;;36.69;22.88;101016.84;4904649;28;99271;-67
2021/07/19 08:57:29;;;;;;;6.13;3.50;;;;;;;37.61;21.96;101021.53;4903567;28;99012;-61
2021/07/19 08:59:57;;;;;;;5.30;3.67;;;;;;;37.06;21.86;101001.63;4902066;28;98721;-69
2021/07/19 09:02:23;;;;;;;5.65;3.30;;;;;;;37.22;21.21;101005.63;4902367;28;108533;-69
2021/07/19 09:04:49;;;;;;;9.10;3.97;;;;;;;34.97;24.14;101005.03;4903880;28;127991;-68
2021/07/19 09:07:16;;;;;;;6.00;3.60;;;;;;;33.31;26.12;100987.63;4902072;28;125929;-66
2021/07/19 09:09:43;;;;;;;6.95;3.67;;;;;;;34.08;24.97;100992.97;4871231;28;98018;-67
2021/07/19 09:12:09;;;;;;;7.03;3.92;;;;;;;34.24;24.04;100991.59;4905124;28;97681;-61
2021/07/19 09:14:38;;;;;;;8.13;4.03;;;;;;;32.71;26.01;100997.94;4903898;28;112008;-61
2021/07/19 09:17:04;;;;;;;5.55;3.47;;;;;;;31.77;27.38;100991.00;4870489;28;121141;-61
2021/07/19 09:19:30;;;;;;;7.97;4.00;;;;;;;31.06;27.49;100977.06;4886551;28;99587;-61
2021/07/19 09:21:58;;;;;;;6.82;4.20;;;;;;;30.52;27.74;100981.63;4903859;28;97659;-68
2021/07/19 09:24:27;;;;;;;6.47;3.70;;;;;;;29.65;29.01;100982.28;4903594;28;98770;-61
2021/07/19 09:26:54;;;;;;;6.30;3.65;;;;;;;28.79;30.28;100981.41;4904669;28;98347;-68
2021/07/19 09:29:22;;;;;;;6.88;4.28;;;;;;;28.04;31.45;100988.75;4904341;28;98336;-68
2021/07/19 09:31:59;;;;;;;7.47;4.43;;;;;;;27.41;32.34;100987.34;4904233;28;98089;-68
2021/07/19 09:34:29;;;;;;;7.53;4.38;;;;;;;27.08;32.39;100981.59;4903739;28;98711;-60
2021/07/19 09:37:11;;;;;;;9.50;5.47;;;;;;;26.80;34.81;100988.19;4902755;28;98725;-64
2021/07/19 09:39:41;;;;;;;7.68;4.53;;;;;;;26.57;35.11;100985.34;4904247;28;98236;-65
2021/07/19 09:42:18;;;;;;;7.80;5.00;;;;;;;26.38;36.27;100983.34;4903734;28;98004;-60
2021/07/19 09:44:55;;;;;;;7.10;4.53;;;;;;;26.02;36.63;100989.25;4904320;28;98311;-60
2021/07/19 09:47:36;;;;;;;9.27;4.75;;;;;;;25.67;37.18;100990.75;4901246;28;98414;-60
2021/07/19 09:50:11;;;;;;;7.03;4.45;;;;;;;25.42;37.39;100987.38;4886922;28;98019;-60
2021/07/19 09:52:37;;;;;;;8.55;4.78;;;;;;;25.35;38.78;100984.44;4887484;28;100649;-60
2021/07/19 09:55:04;;;;;;;8.00;5.05;;;;;;;25.37;37.07;100992.34;4903314;28;98844;-60
2021/07/19 09:57:31;;;;;;;8.85;4.70;;;;;;;25.42;38.76;100990.13;4903442;28;121100;-66
2021/07/19 09:59:58;;;;;;;7.72;4.75;;;;;;;26.07;36.15;100986.19;4902725;28;97921;-61
2021/07/19 10:02:40;;;;;;;10.18;4.63;;;;;;;26.03;36.67;100993.59;4903587;28;97913;-66
2021/07/19 10:05:10;;;;;;;10.70;4.68;;;;;;;25.77;37.87;100996.88;4903316;28;98444;-66
2021/07/19 10:07:46;;;;;;;8.50;4.45;;;;;;;25.62;37.52;100984.69;4906004;28;105864;-61
2021/07/19 10:10:13;;;;;;;10.23;4.22;;;;;;;25.63;36.23;100987.13;4884499;28;125691;-67
2021/07/19 10:12:39;;;;;;;7.55;4.47;;;;;;;27.57;32.86;100991.94;4901295;28;98637;-73
2021/07/19 10:15:06;;;;;;;6.55;4.13;;;;;;;27.21;33.16;100985.81;4869258;28;105688;-63
2021/07/19 10:17:32;;;;;;;7.32;4.10;;;;;;;26.80;34.10;100990.13;4903232;28;98817;-74
2021/07/19 10:19:58;;;;;;;7.35;4.25;;;;;;;26.42;34.20;100997.22;4900375;28;119559;-65
2021/07/19 10:22:24;;;;;;;7.82;4.38;;;;;;;26.05;35.28;100991.25;4903668;28;101014;-75
2021/07/19 10:24:51;;;;;;;9.50;4.35;;;;;;;25.80;35.48;100991.47;4901550;28;104326;-75
2021/07/19 10:27:24;;;;;;;7.45;4.07;;;;;;;25.68;36.44;100988.78;4885526;28;98349;-66
2021/07/19 10:29:50;;;;;;;7.65;3.70;;;;;;;25.64;36.09;100979.63;4885363;28;97932;-66
2021/07/19 10:32:18;;;;;;;6.38;3.53;;;;;;;25.73;36.30;100983.00;4902041;28;97868;-74
2021/07/19 10:34:52;;;;;;;6.18;3.17;;;;;;;28.35;32.59;100984.03;4902959;28;98547;-67
2021/07/19 10:37:50;;;;;;;5.53;3.15;;;;;;;27.51;34.04;100979.56;4901435;28;98756;-74
2021/07/19 10:40:24;;;;;;;5.32;2.75;;;;;;;27.63;32.95;100988.50;4901601;28;98223;-68
2021/07/19 10:42:50;;;;;;;7.93;2.97;;;;;;;27.28;34.44;100982.38;4902586;28;97832;-75
2021/07/19 10:45:20;;;;;;;6.85;2.70;;;;;;;27.04;33.97;100986.22;4900943;28;126591;-75
2021/07/19 10:47:53;;;;;;;6.57;2.63;;;;;;;27.48;32.86;100983.91;4902963;28;98668;-67
2021/07/19 10:50:27;;;;;;;7.32;2.88;;;;;;;29.10;31.06;100976.63;4902675;28;98638;-75
2021/07/19 10:52:55;;;;;;;5.07;2.50;;;;;;;28.49;31.46;100987.03;4903824;28;97967;-76
2021/07/19 10:55:32;;;;;;;6.82;2.20;;;;;;;28.31;32.02;100983.19;4903376;28;98581;-68
2021/07/19 10:58:16;;;;;;;5.20;2.20;;;;;;;28.50;31.82;100982.28;4886174;28;98897;-70
2021/07/19 11:00:45;;;;;;;4.95;2.10;;;;;;;28.35;32.31;100981.25;4901652;28;98165;-70
2021/07/19 11:03:12;;;;;;;5.35;2.05;;;;;;;28.14;31.51;100981.78;4869273;28;103359;-76
2021/07/19 11:05:41;;;;;;;4.30;1.95;;;;;;;28.26;32.04;100972.44;4884751;28;98801;-71
2021/07/19 11:08:18;;;;;;;5.95;2.22;;;;;;;28.28;31.73;100972.84;4903521;28;98125;-75
2021/07/19 11:10:47;;;;;;;7.13;2.00;;;;;;;29.36;31.29;100975.69;4900532;28;97916;-76
2021/07/19 11:13:33;;;;;;;4.00;1.80;;;;;;;29.18;31.96;100972.75;4902706;28;117565;-75
2021/07/19 11:16:01;;;;;;;4.03;1.98;;;;;;;30.14;28.62;100969.91;4901516;28;98707;-77
2021/07/19 11:18:29;;;;;;;5.18;2.00;;;;;;;29.49;29.78;100974.22;4902252;28;113497;-71
2021/07/19 11:21:00;;;;;;;4.43;1.75;;;;;;;28.82;31.40;100969.56;4902114;28;97873;-71
2021/07/19 11:23:29;;;;;;;6.70;1.92;;;;;;;28.34;31.34;100976.91;4917496;28;98038;-71